createdAt,value
2023-04-01T00:02:09.221Z,2.45
2023-04-01T00:04:51.952Z,2.70
2023-04-01T00:07:19.859Z,2.33
2023-04-01T00:09:47.797Z,2.55
2023-04-01T00:12:15.672Z,2.85
2023-04-01T00:14:43.579Z,2.50
2023-04-01T00:17:11.658Z,2.50
2023-04-01T00:19:39.793Z,2.35
2023-04-01T00:22:12.393Z,2.50
2023-04-01T00:24:40.288Z,2.63
2023-04-01T00:27:09.062Z,2.83
2023-04-01T00:29:36.999Z,2.72
2023-04-01T00:32:05.341Z,2.50
2023-04-01T00:34:33.365Z,2.40
2023-04-01T00:37:01.295Z,2.80
2023-04-01T00:39:32.321Z,2.80
2023-04-01T00:42:00.383Z,2.55
2023-04-01T00:44:29.657Z,2.42
2023-04-01T00:46:57.789Z,2.40
2023-04-01T00:49:27.097Z,2.58
2023-04-01T00:51:56.719Z,2.63
2023-04-01T00:54:25.601Z,2.40
2023-04-01T00:56:57.148Z,2.65
2023-04-01T00:59:26.911Z,2.47
2023-04-01T01:01:54.907Z,2.40
2023-04-01T01:04:24.963Z,2.67
2023-04-01T01:06:56.509Z,2.58
2023-04-01T01:09:35.282Z,2.45
2023-04-01T01:12:08.008Z,2.35
2023-04-01T01:14:41.370Z,2.75
2023-04-01T01:17:12.917Z,2.40
2023-04-01T01:20:25.438Z,2.70
2023-04-01T01:22:59.254Z,2.40
2023-04-01T01:25:34.619Z,2.50
2023-04-01T01:28:15.182Z,2.70
2023-04-01T01:30:46.090Z,2.40
2023-04-01T01:33:41.376Z,2.60
2023-04-01T01:36:11.550Z,2.50
2023-04-01T01:38:39.829Z,2.53
2023-04-01T01:41:08.606Z,2.30
2023-04-01T01:43:39.017Z,2.40
2023-04-01T01:46:08.713Z,2.53
2023-04-01T01:48:38.030Z,2.65
2023-04-01T01:51:06.971Z,2.60
2023-04-01T01:53:36.312Z,2.60
2023-04-01T01:56:04.366Z,2.40
2023-04-01T01:58:41.297Z,2.90
2023-04-01T02:01:13.988Z,2.58
2023-04-01T02:03:42.038Z,2.75
2023-04-01T02:06:12.821Z,2.80
2023-04-01T02:08:43.824Z,2.70
2023-04-01T02:11:13.057Z,2.60
2023-04-01T02:13:45.000Z,2.80
2023-04-01T02:16:15.513Z,2.42
2023-04-01T02:18:43.396Z,2.53
2023-04-01T02:21:11.371Z,2.45
2023-04-01T02:23:39.310Z,2.58
2023-04-01T02:26:08.909Z,2.80
2023-04-01T02:28:37.138Z,2.67
2023-04-01T02:31:05.203Z,2.70
2023-04-01T02:33:33.181Z,2.83
2023-04-01T02:36:01.088Z,2.33
2023-04-01T02:38:29.001Z,2.65
2023-04-01T02:40:59.262Z,2.47
2023-04-01T02:43:28.544Z,2.50
2023-04-01T02:45:57.386Z,2.60
2023-04-01T02:48:25.345Z,2.58
2023-04-01T02:50:53.260Z,2.40
2023-04-01T02:53:21.238Z,2.80
2023-04-01T02:55:51.366Z,2.53
2023-04-01T02:58:19.268Z,2.70
2023-04-01T03:00:48.558Z,2.60
2023-04-01T03:03:16.557Z,2.42
2023-04-01T03:05:44.550Z,2.58
2023-04-01T03:08:12.749Z,2.78
2023-04-01T03:10:40.806Z,2.58
2023-04-01T03:13:09.012Z,2.63
2023-04-01T03:15:36.980Z,2.70
2023-04-01T03:18:06.438Z,2.60
2023-04-01T03:20:34.354Z,2.60
2023-04-01T03:23:02.216Z,2.53
2023-04-01T03:25:31.805Z,2.70
2023-04-01T03:28:01.080Z,2.60
2023-04-01T03:30:30.914Z,2.45
2023-04-01T03:32:59.172Z,2.42
2023-04-01T03:35:28.565Z,2.67
2023-04-01T03:37:56.614Z,2.40
2023-04-01T03:40:24.554Z,2.50
2023-04-01T03:42:53.093Z,2.95
2023-04-01T03:45:21.096Z,2.72
2023-04-01T03:47:49.027Z,2.67
2023-04-01T03:50:17.361Z,2.83
2023-04-01T03:52:46.774Z,2.63
2023-04-01T03:55:14.815Z,2.50
2023-04-01T03:57:42.780Z,2.90
2023-04-01T04:00:18.811Z,2.50
2023-04-01T04:02:50.531Z,2.60
2023-04-01T04:05:22.962Z,2.50
2023-04-01T04:07:52.996Z,2.88
2023-04-01T04:10:20.998Z,2.65
2023-04-01T04:12:48.878Z,2.75
2023-04-01T04:15:17.081Z,2.40
2023-04-01T04:17:45.928Z,2.75
2023-04-01T04:20:15.494Z,2.60
2023-04-01T04:22:43.577Z,2.50
2023-04-01T04:25:12.849Z,2.90
2023-04-01T04:27:40.788Z,2.83
2023-04-01T04:30:11.105Z,2.50
2023-04-01T04:32:39.239Z,2.80
2023-04-01T04:35:08.327Z,2.47
2023-04-01T04:37:36.551Z,2.60
2023-04-01T04:40:04.656Z,2.88
2023-04-01T04:42:34.496Z,2.72
2023-04-01T04:45:08.591Z,2.70
2023-04-01T04:47:39.121Z,2.70
2023-04-01T04:50:08.622Z,2.58
2023-04-01T04:52:38.401Z,2.70
2023-04-01T04:55:07.374Z,2.67
2023-04-01T04:57:36.768Z,2.50
2023-04-01T05:00:05.340Z,2.60
2023-04-01T05:02:50.214Z,2.58
2023-04-01T05:05:19.335Z,2.60
2023-04-01T05:07:47.706Z,2.60
2023-04-01T05:10:15.852Z,2.42
2023-04-01T05:12:45.083Z,2.50
2023-04-01T05:15:17.693Z,2.80
2023-04-01T05:17:46.469Z,2.95
2023-04-01T05:20:15.795Z,2.53
2023-04-01T05:22:43.884Z,2.50
2023-04-01T05:25:11.913Z,2.85
2023-04-01T05:27:40.157Z,2.85
2023-04-01T05:30:10.633Z,2.42
2023-04-01T05:33:00.133Z,2.40
2023-04-01T05:35:28.575Z,2.60
2023-04-01T05:37:56.569Z,2.80
2023-04-01T05:40:24.507Z,2.63
2023-04-01T05:42:52.423Z,2.53
2023-04-01T05:45:21.688Z,2.78
2023-04-01T05:48:09.533Z,2.70
2023-04-01T05:50:42.275Z,2.75
2023-04-01T05:53:11.514Z,2.65
2023-04-01T05:55:42.308Z,2.55
2023-04-01T05:58:10.241Z,2.50
2023-04-01T06:00:41.776Z,2.60
2023-04-01T06:03:09.833Z,2.60
2023-04-01T06:05:41.145Z,2.58
2023-04-01T06:08:12.753Z,2.47
2023-04-01T06:10:51.343Z,2.55
2023-04-01T06:13:23.467Z,2.95
2023-04-01T06:15:54.541Z,2.50
2023-04-01T06:18:52.654Z,2.72
2023-04-01T06:21:39.385Z,2.33
2023-04-01T06:24:15.337Z,2.55
2023-04-01T06:26:46.638Z,2.80
2023-04-01T06:29:34.519Z,2.13
2023-04-01T06:32:32.586Z,2.35
2023-04-01T06:35:13.410Z,2.40
2023-04-01T06:37:52.820Z,2.47
2023-04-01T06:40:28.541Z,2.50
2023-04-01T06:43:08.369Z,2.50
2023-04-01T06:45:56.573Z,2.55
2023-04-01T06:48:51.632Z,2.40
2023-04-01T06:51:56.999Z,2.50
2023-04-01T06:54:46.128Z,2.70
2023-04-01T06:57:34.936Z,2.30
2023-04-01T07:00:04.343Z,2.60
2023-04-01T07:02:35.002Z,2.50
2023-04-01T07:05:04.480Z,2.53
2023-04-01T07:07:36.002Z,2.30
2023-04-01T07:10:08.459Z,2.35
2023-04-01T07:12:57.301Z,2.47
2023-04-01T07:15:58.807Z,2.40
2023-04-01T07:18:33.063Z,2.22
2023-04-01T07:21:02.338Z,2.30
2023-04-01T07:23:33.397Z,2.65
2023-04-01T07:26:13.146Z,2.40
2023-04-01T07:29:04.147Z,2.55
2023-04-01T07:31:52.633Z,2.22
2023-04-01T07:34:24.144Z,2.25
2023-04-01T07:36:56.519Z,2.35
2023-04-01T07:39:31.056Z,2.10
2023-04-01T07:42:18.547Z,2.20
2023-04-01T07:44:51.458Z,2.25
2023-04-01T07:47:42.820Z,2.08
2023-04-01T07:50:19.007Z,2.45
2023-04-01T07:52:51.440Z,2.40
2023-04-01T07:55:26.008Z,2.30
2023-04-01T07:57:57.773Z,2.15
2023-04-01T08:00:27.314Z,2.08
2023-04-01T08:03:11.227Z,2.25
2023-04-01T08:05:44.534Z,2.10
2023-04-01T08:08:20.545Z,2.05
2023-04-01T08:11:11.235Z,2.30
2023-04-01T08:14:03.191Z,2.10
2023-04-01T08:16:54.590Z,2.10
2023-04-01T08:19:34.431Z,1.98
2023-04-01T08:22:05.555Z,2.17
2023-04-01T08:24:47.157Z,2.20
2023-04-01T08:27:23.514Z,2.28
2023-04-01T08:29:55.065Z,2.10
2023-04-01T08:32:24.398Z,2.20
2023-04-01T08:34:55.722Z,2.10
2023-04-01T08:37:33.826Z,2.30
2023-04-01T08:40:06.553Z,2.40
2023-04-01T08:42:43.192Z,2.13
2023-04-01T08:45:40.782Z,2.05
2023-04-01T08:48:30.204Z,2.50
2023-04-01T08:51:23.947Z,3.35
2023-04-01T08:54:06.339Z,2.97
2023-04-01T08:56:36.535Z,3.35
2023-04-01T08:59:31.812Z,3.28
2023-04-01T09:02:14.851Z,3.95
2023-04-01T09:05:03.169Z,3.67
2023-04-01T09:07:36.993Z,4.03
2023-04-01T09:10:26.247Z,3.53
2023-04-01T09:13:12.469Z,3.70
2023-04-01T09:15:50.138Z,4.15
2023-04-01T09:18:37.108Z,4.50
2023-04-01T09:21:25.627Z,4.57
2023-04-01T09:24:13.279Z,4.30
2023-04-01T09:26:57.683Z,4.10
2023-04-01T09:29:37.292Z,4.35
2023-04-01T09:32:18.535Z,4.53
2023-04-01T09:34:56.912Z,4.25
2023-04-01T09:37:36.504Z,4.40
2023-04-01T09:40:20.515Z,5.07
2023-04-01T09:43:09.362Z,4.95
2023-04-01T09:46:10.070Z,4.38
2023-04-01T09:49:15.617Z,4.43
2023-04-01T09:51:50.877Z,11.38
2023-04-01T09:54:27.257Z,11.68
2023-04-01T09:57:34.005Z,10.32
2023-04-01T10:00:54.455Z,10.40
2023-04-01T10:03:34.123Z,16.02
2023-04-01T10:06:45.443Z,17.02
2023-04-01T10:09:41.762Z,20.30
2023-04-01T10:12:37.951Z,18.70
2023-04-01T10:15:29.592Z,18.77
2023-04-01T10:18:22.001Z,21.02
2023-04-01T10:21:18.924Z,19.45
2023-04-01T10:24:15.036Z,18.80
2023-04-01T10:26:57.731Z,16.08
2023-04-01T10:30:08.848Z,18.08
2023-04-01T10:33:17.930Z,18.17
2023-04-01T10:36:26.191Z,19.25
2023-04-01T10:39:22.384Z,20.50
2023-04-01T10:42:16.808Z,19.52
2023-04-01T10:45:47.135Z,19.52
2023-04-01T10:48:25.692Z,20.63
2023-04-01T10:51:14.204Z,18.95
2023-04-01T10:54:24.061Z,19.02
2023-04-01T10:57:44.847Z,18.80
2023-04-01T11:01:07.573Z,17.65
2023-04-01T11:04:42.102Z,17.60
2023-04-01T11:08:05.362Z,16.70
2023-04-01T11:11:19.472Z,17.02
2023-04-01T11:14:15.868Z,17.20
2023-04-01T11:17:04.881Z,16.88
2023-04-01T11:19:57.651Z,16.55
2023-04-01T11:23:11.073Z,16.38
2023-04-01T11:26:03.570Z,15.40
2023-04-01T11:29:10.613Z,15.05
2023-04-01T11:31:48.160Z,15.98
2023-04-01T11:34:24.105Z,15.30
2023-04-01T11:36:57.829Z,14.18
2023-04-01T11:39:32.164Z,15.25
2023-04-01T11:42:11.479Z,14.57
2023-04-01T11:45:14.399Z,14.10
2023-04-01T11:47:54.571Z,13.50
2023-04-01T11:50:29.749Z,14.27
2023-04-01T11:53:03.530Z,13.43
2023-04-01T11:55:37.714Z,13.05
2023-04-01T11:58:25.373Z,13.13
2023-04-01T12:01:04.836Z,12.93
2023-04-01T12:03:55.707Z,12.95
2023-04-01T12:06:25.863Z,13.60
2023-04-01T12:08:57.938Z,12.70
2023-04-01T12:11:28.495Z,13.52
2023-04-01T12:14:00.226Z,12.45
2023-04-01T12:16:45.428Z,12.85
2023-04-01T12:19:17.802Z,12.70
2023-04-01T12:21:47.571Z,12.70
2023-04-01T12:24:36.549Z,12.57
2023-04-01T12:27:30.999Z,10.90
2023-04-01T12:30:14.814Z,11.15
2023-04-01T12:32:44.235Z,11.65
2023-04-01T12:35:21.424Z,11.70
2023-04-01T12:37:54.636Z,10.88
2023-04-01T12:40:39.589Z,11.43
2023-04-01T12:43:39.650Z,11.07
2023-04-01T12:46:13.799Z,11.48
2023-04-01T12:49:02.595Z,11.20
2023-04-01T12:51:58.578Z,10.60
2023-04-01T12:55:00.706Z,9.27
2023-04-01T12:57:36.455Z,10.43
2023-04-01T13:00:15.078Z,9.90
2023-04-01T13:02:52.223Z,10.32
2023-04-01T13:05:29.871Z,9.50
2023-04-01T13:08:06.570Z,10.63
2023-04-01T13:10:40.955Z,9.15
2023-04-01T13:13:21.945Z,9.73
2023-04-01T13:15:50.452Z,10.00
2023-04-01T13:18:24.880Z,9.73
2023-04-01T13:20:56.517Z,10.73
2023-04-01T13:23:35.053Z,10.25
2023-04-01T13:26:14.517Z,9.77
2023-04-01T13:28:45.911Z,9.18
2023-04-01T13:31:22.378Z,9.15
2023-04-01T13:33:55.827Z,9.45
2023-04-01T13:36:28.527Z,9.23
2023-04-01T13:39:03.623Z,9.52
2023-04-01T13:41:41.876Z,9.70
2023-04-01T13:44:12.364Z,9.10
2023-04-01T13:46:55.009Z,8.80
2023-04-01T13:49:42.557Z,8.77
2023-04-01T13:52:31.888Z,8.65
2023-04-01T13:55:17.444Z,8.98
2023-04-01T13:57:53.661Z,9.20
2023-04-01T14:00:49.442Z,9.07
2023-04-01T14:03:29.224Z,8.65
2023-04-01T14:06:07.810Z,8.90
2023-04-01T14:09:01.641Z,8.98
2023-04-01T14:11:32.943Z,8.50
2023-04-01T14:14:04.295Z,8.20
2023-04-01T14:16:55.060Z,8.57
2023-04-01T14:19:29.873Z,8.25
2023-04-01T14:22:01.902Z,7.53
2023-04-01T14:24:37.050Z,7.65
2023-04-01T14:27:14.778Z,7.80
2023-04-01T14:29:48.017Z,8.05
2023-04-01T14:32:18.494Z,6.88
2023-04-01T14:34:59.271Z,7.43
2023-04-01T14:37:57.247Z,7.40
2023-04-01T14:40:29.270Z,7.63
2023-04-01T14:43:40.359Z,7.60
2023-04-01T14:46:26.611Z,8.05
2023-04-01T14:48:56.074Z,7.05
2023-04-01T14:51:25.851Z,7.55
2023-04-01T14:54:02.254Z,7.30
2023-04-01T14:56:40.514Z,7.10
2023-04-01T14:59:16.291Z,6.90
2023-04-01T15:01:49.395Z,6.65
2023-04-01T15:04:49.165Z,7.32
2023-04-01T15:08:02.079Z,7.68
2023-04-01T15:10:50.547Z,7.32
2023-04-01T15:13:22.658Z,6.45
2023-04-01T15:16:01.410Z,6.57
2023-04-01T15:18:34.866Z,7.00
2023-04-01T15:21:22.640Z,7.05
2023-04-01T15:24:02.075Z,6.45
2023-04-01T15:27:04.229Z,6.50
2023-04-01T15:29:45.369Z,6.55
2023-04-01T15:32:18.664Z,6.57
2023-04-01T15:34:50.394Z,6.70
2023-04-01T15:37:21.641Z,6.22
2023-04-01T15:39:54.682Z,5.85
2023-04-01T15:42:30.818Z,6.43
2023-04-01T15:45:04.968Z,6.13
2023-04-01T15:47:38.794Z,6.40
2023-04-01T15:50:36.382Z,6.00
2023-04-01T15:53:11.059Z,6.07
2023-04-01T15:55:39.826Z,5.97
2023-04-01T15:58:25.144Z,6.07
2023-04-01T16:00:55.706Z,5.90
2023-04-01T16:03:32.955Z,6.10
2023-04-01T16:06:24.068Z,5.90
2023-04-01T16:09:03.733Z,6.00
2023-04-01T16:11:37.496Z,5.65
2023-04-01T16:14:13.221Z,5.35
2023-04-01T16:17:00.591Z,5.28
2023-04-01T16:19:36.328Z,5.68
2023-04-01T16:22:07.115Z,5.60
2023-04-01T16:24:36.689Z,4.95
2023-04-01T16:27:07.267Z,5.43
2023-04-01T16:29:40.181Z,5.50
2023-04-01T16:32:20.135Z,5.13
2023-04-01T16:34:49.956Z,4.85
2023-04-01T16:37:19.227Z,5.40
2023-04-01T16:39:49.813Z,5.20
2023-04-01T16:42:33.200Z,5.15
2023-04-01T16:45:06.654Z,5.25
2023-04-01T16:47:36.570Z,5.20
2023-04-01T16:50:08.798Z,5.45
2023-04-01T16:52:44.550Z,5.10
2023-04-01T16:55:17.292Z,4.85
2023-04-01T16:57:48.686Z,4.97
2023-04-01T17:00:22.014Z,4.88
2023-04-01T17:02:51.549Z,5.10
2023-04-01T17:05:19.620Z,4.70
2023-04-01T17:07:50.260Z,5.00
2023-04-01T17:10:30.454Z,5.25
2023-04-01T17:13:19.331Z,4.50
2023-04-01T17:15:52.323Z,4.78
2023-04-01T17:18:24.022Z,5.03
2023-04-01T17:20:52.433Z,4.95
2023-04-01T17:23:33.328Z,4.50
2023-04-01T17:26:16.643Z,4.50
2023-04-01T17:28:49.074Z,4.40
2023-04-01T17:31:25.021Z,4.63
2023-04-01T17:34:04.604Z,4.55
2023-04-01T17:36:39.514Z,4.25
2023-04-01T17:39:18.503Z,4.40
2023-04-01T17:41:49.186Z,4.22
2023-04-01T17:44:41.269Z,4.07
2023-04-01T17:47:32.520Z,4.10
2023-04-01T17:50:12.155Z,4.38
2023-04-01T17:52:41.663Z,4.03
2023-04-01T17:55:27.626Z,4.40
2023-04-01T17:57:57.796Z,4.20
2023-04-01T18:00:32.313Z,4.40
2023-04-01T18:03:09.515Z,3.95
2023-04-01T18:06:00.450Z,4.00
2023-04-01T18:08:35.622Z,4.80
2023-04-01T18:11:10.864Z,4.40
2023-04-01T18:13:57.685Z,4.25
2023-04-01T18:16:57.732Z,3.78
2023-04-01T18:19:30.060Z,4.32
2023-04-01T18:22:00.418Z,4.00
2023-04-01T18:24:30.510Z,3.83
2023-04-01T18:27:04.379Z,3.85
2023-04-01T18:29:39.768Z,4.05
2023-04-01T18:32:16.370Z,3.60
2023-04-01T18:34:57.005Z,3.58
2023-04-01T18:37:27.769Z,3.97
2023-04-01T18:39:58.099Z,3.75
2023-04-01T18:42:31.539Z,4.00
2023-04-01T18:45:02.135Z,3.80
2023-04-01T18:47:35.873Z,3.90
2023-04-01T18:50:13.624Z,3.70
2023-04-01T18:52:42.202Z,3.83
2023-04-01T18:55:27.417Z,3.78
2023-04-01T18:57:57.522Z,4.15
2023-04-01T19:00:27.842Z,4.03
2023-04-01T19:02:59.129Z,4.13
2023-04-01T19:05:32.870Z,4.15
2023-04-01T19:08:16.508Z,4.20
2023-04-01T19:10:48.008Z,4.47
2023-04-01T19:13:19.910Z,4.13
2023-04-01T19:15:50.761Z,4.60
2023-04-01T19:18:45.043Z,4.60
2023-04-01T19:21:17.620Z,4.38
2023-04-01T19:24:00.922Z,4.65
2023-04-01T19:26:30.489Z,5.10
2023-04-01T19:29:00.543Z,5.03
2023-04-01T19:31:39.946Z,4.55
2023-04-01T19:34:14.384Z,5.07
2023-04-01T19:36:48.153Z,4.55
2023-04-01T19:39:26.321Z,5.20
2023-04-01T19:41:56.791Z,4.70
2023-04-01T19:44:31.633Z,4.95
2023-04-01T19:47:03.405Z,4.97
2023-04-01T19:49:41.028Z,5.10
2023-04-01T19:52:13.197Z,4.75
2023-04-01T19:54:43.236Z,5.13
2023-04-01T19:57:17.426Z,4.75
2023-04-01T19:59:48.063Z,4.93
2023-04-01T20:02:38.066Z,5.20
2023-04-01T20:05:17.694Z,4.88
2023-04-01T20:07:49.647Z,5.25
2023-04-01T20:10:20.127Z,4.68
2023-04-01T20:12:49.919Z,4.68
2023-04-01T20:15:29.237Z,4.82
2023-04-01T20:17:57.409Z,4.97
2023-04-01T20:20:26.446Z,4.80
2023-04-01T20:23:04.220Z,4.97
2023-04-01T20:25:34.191Z,4.75
2023-04-01T20:28:04.286Z,5.07
2023-04-01T20:31:11.989Z,5.10
2023-04-01T20:33:49.846Z,4.88
2023-04-01T20:36:21.270Z,5.00
2023-04-01T20:39:05.796Z,4.95
2023-04-01T20:41:36.541Z,4.97
2023-04-01T20:44:06.787Z,5.00
2023-04-01T20:46:42.969Z,5.10
2023-04-01T20:49:26.185Z,4.80
2023-04-01T20:51:56.743Z,4.97
2023-04-01T20:54:33.308Z,5.05
2023-04-01T20:57:06.783Z,4.90
2023-04-01T20:59:43.310Z,4.65
2023-04-01T21:02:35.767Z,5.10
2023-04-01T21:05:33.716Z,5.18
2023-04-01T21:08:05.542Z,4.95
2023-04-01T21:10:41.069Z,5.38
2023-04-01T21:13:17.149Z,5.55
2023-04-01T21:15:57.363Z,4.70
2023-04-01T21:19:04.242Z,5.40
2023-04-01T21:21:48.177Z,4.88
2023-04-01T21:24:40.899Z,5.50
2023-04-01T21:27:13.196Z,5.18
2023-04-01T21:29:55.724Z,4.53
2023-04-01T21:32:39.677Z,4.88
2023-04-01T21:35:10.167Z,4.30
2023-04-01T21:38:05.823Z,4.68
2023-04-01T21:40:42.341Z,4.75
2023-04-01T21:43:20.041Z,4.70
2023-04-01T21:45:57.684Z,4.57
2023-04-01T21:48:38.266Z,4.97
2023-04-01T21:51:19.294Z,4.93
2023-04-01T21:53:55.147Z,4.82
2023-04-01T21:56:41.863Z,4.60
2023-04-01T21:59:43.296Z,4.47
2023-04-01T22:02:25.910Z,4.25
2023-04-01T22:04:59.586Z,4.28
2023-04-01T22:07:29.624Z,3.90
2023-04-01T22:10:01.737Z,4.10
2023-04-01T22:12:31.907Z,4.65
2023-04-01T22:15:03.139Z,4.15
2023-04-01T22:17:34.959Z,4.07
2023-04-01T22:20:11.198Z,3.92
2023-04-01T22:22:52.369Z,4.20
2023-04-01T22:25:22.043Z,3.65
2023-04-01T22:27:52.175Z,4.03
2023-04-01T22:30:22.432Z,3.67
2023-04-01T22:32:52.503Z,4.10
2023-04-01T22:35:29.970Z,3.80
2023-04-01T22:38:01.108Z,4.07
2023-04-01T22:40:31.762Z,3.65
2023-04-01T22:43:01.727Z,3.75
2023-04-01T22:45:45.299Z,3.75
2023-04-01T22:48:17.339Z,3.70
2023-04-01T22:50:47.262Z,4.20
2023-04-01T22:53:20.222Z,3.53
2023-04-01T22:55:52.991Z,3.50
2023-04-01T22:58:23.722Z,3.50
2023-04-01T23:00:52.298Z,3.63
2023-04-01T23:03:22.501Z,3.50
2023-04-01T23:05:52.703Z,3.42
2023-04-01T23:08:41.896Z,3.58
2023-04-01T23:11:10.081Z,3.65
2023-04-01T23:13:39.869Z,3.50
2023-04-01T23:16:08.410Z,3.40
2023-04-01T23:18:38.288Z,3.88
2023-04-01T23:21:11.649Z,3.47
2023-04-01T23:23:47.381Z,3.60
2023-04-01T23:26:16.889Z,3.55
2023-04-01T23:28:49.877Z,3.30
2023-04-01T23:31:35.131Z,3.40
2023-04-01T23:34:05.863Z,3.28
2023-04-01T23:36:33.757Z,3.05
2023-04-01T23:39:16.632Z,3.13
2023-04-01T23:41:44.540Z,3.10
2023-04-01T23:44:13.551Z,3.53
2023-04-01T23:46:41.764Z,3.33
2023-04-01T23:49:15.254Z,3.05
2023-04-01T23:51:51.869Z,3.47
2023-04-01T23:54:22.690Z,3.30
2023-04-01T23:56:53.077Z,3.47
2023-04-01T23:59:24.084Z,2.80
